sensor_id;sensor_type;location;lat;lon;timestamp;pressure;altitude;pressure_sealevel;temperature;humidity
79048;BME280;68680;50.764;6.120;2023-07-29T00:02:03;98683.69;;;18.37;100.00
79048;BME280;68680;50.764;6.120;2023-07-29T00:04:30;98679.09;;;18.37;100.00
79048;BME280;68680;50.764;6.120;2023-07-29T00:06:56;98679.72;;;18.34;100.00
79048;BME280;68680;50.764;6.120;2023-07-29T00:09:22;98681.81;;;18.37;100.00
79048;BME280;68680;50.764;6.120;2023-07-29T00:11:48;98685.03;;;18.39;100.00
79048;BME280;68680;50.764;6.120;2023-07-29T00:14:13;98676.41;;;18.37;100.00
79048;BME280;68680;50.764;6.120;2023-07-29T00:16:39;98686.69;;;18.35;100.00
79048;BME280;68680;50.764;6.120;2023-07-29T00:19:05;98687.56;;;18.31;100.00
79048;BME280;68680;50.764;6.120;2023-07-29T00:21:32;98690.63;;;18.24;100.00
79048;BME280;68680;50.764;6.120;2023-07-29T00:23:58;98686.84;;;18.25;100.00
79048;BME280;68680;50.764;6.120;2023-07-29T00:26:24;98684.88;;;18.12;100.00
79048;BME280;68680;50.764;6.120;2023-07-29T00:28:50;98688.63;;;18.16;100.00
79048;BME280;68680;50.764;6.120;2023-07-29T00:31:16;98685.19;;;18.11;100.00
79048;BME280;68680;50.764;6.120;2023-07-29T00:33:42;98683.72;;;17.99;100.00
79048;BME280;68680;50.764;6.120;2023-07-29T00:36:07;98676.78;;;17.93;100.00
79048;BME280;68680;50.764;6.120;2023-07-29T00:38:34;98677.53;;;17.99;100.00
79048;BME280;68680;50.764;6.120;2023-07-29T00:41:02;98678.91;;;17.96;100.00
79048;BME280;68680;50.764;6.120;2023-07-29T00:43:28;98675.38;;;17.96;100.00
79048;BME280;68680;50.764;6.120;2023-07-29T00:45:54;98673.28;;;17.93;100.00
79048;BME280;68680;50.764;6.120;2023-07-29T00:48:20;98683.75;;;17.94;100.00
79048;BME280;68680;50.764;6.120;2023-07-29T00:50:46;98678.16;;;17.91;100.00
79048;BME280;68680;50.764;6.120;2023-07-29T00:53:12;98677.28;;;17.95;100.00
79048;BME280;68680;50.764;6.120;2023-07-29T00:55:39;98686.25;;;17.91;100.00
79048;BME280;68680;50.764;6.120;2023-07-29T00:58:05;98675.25;;;17.87;100.00
79048;BME280;68680;50.764;6.120;2023-07-29T01:00:31;98668.00;;;17.83;100.00
79048;BME280;68680;50.764;6.120;2023-07-29T01:02:57;98674.53;;;17.82;100.00
79048;BME280;68680;50.764;6.120;2023-07-29T01:05:26;98676.41;;;17.81;100.00
79048;BME280;68680;50.764;6.120;2023-07-29T01:08:00;98675.69;;;17.76;100.00
79048;BME280;68680;50.764;6.120;2023-07-29T01:10:39;98679.22;;;17.71;100.00
79048;BME280;68680;50.764;6.120;2023-07-29T01:13:19;98667.69;;;17.65;100.00
79048;BME280;68680;50.764;6.120;2023-07-29T01:15:54;98666.59;;;17.67;100.00
79048;BME280;68680;50.764;6.120;2023-07-29T01:18:26;98656.34;;;17.69;100.00
79048;BME280;68680;50.764;6.120;2023-07-29T01:20:58;98659.38;;;17.62;100.00
79048;BME280;68680;50.764;6.120;2023-07-29T01:23:26;98662.47;;;17.50;100.00
79048;BME280;68680;50.764;6.120;2023-07-29T01:25:54;98661.72;;;17.45;100.00
79048;BME280;68680;50.764;6.120;2023-07-29T01:28:20;98665.38;;;17.30;100.00
79048;BME280;68680;50.764;6.120;2023-07-29T01:30:51;98672.69;;;17.30;100.00
79048;BME280;68680;50.764;6.120;2023-07-29T01:33:24;98684.03;;;17.27;100.00
79048;BME280;68680;50.764;6.120;2023-07-29T01:35:56;98678.41;;;17.23;100.00
79048;BME280;68680;50.764;6.120;2023-07-29T01:38:33;98689.75;;;17.20;100.00
79048;BME280;68680;50.764;6.120;2023-07-29T01:41:02;98683.56;;;17.19;100.00
79048;BME280;68680;50.764;6.120;2023-07-29T01:43:29;98684.38;;;17.20;100.00
79048;BME280;68680;50.764;6.120;2023-07-29T01:45:55;98684.91;;;17.22;100.00
79048;BME280;68680;50.764;6.120;2023-07-29T01:48:21;98681.66;;;17.20;100.00
79048;BME280;68680;50.764;6.120;2023-07-29T01:50:46;98683.06;;;17.17;100.00
79048;BME280;68680;50.764;6.120;2023-07-29T01:53:12;98671.75;;;17.15;100.00
79048;BME280;68680;50.764;6.120;2023-07-29T01:55:41;98668.19;;;17.20;100.00
79048;BME280;68680;50.764;6.120;2023-07-29T01:58:07;98669.34;;;17.14;100.00
79048;BME280;68680;50.764;6.120;2023-07-29T02:00:33;98675.78;;;17.18;100.00
79048;BME280;68680;50.764;6.120;2023-07-29T02:02:59;98672.28;;;17.17;100.00
79048;BME280;68680;50.764;6.120;2023-07-29T02:05:25;98678.22;;;17.14;100.00
79048;BME280;68680;50.764;6.120;2023-07-29T02:07:50;98674.66;;;17.19;100.00
79048;BME280;68680;50.764;6.120;2023-07-29T02:10:16;98668.03;;;17.11;100.00
79048;BME280;68680;50.764;6.120;2023-07-29T02:12:43;98672.03;;;17.14;100.00
79048;BME280;68680;50.764;6.120;2023-07-29T02:15:09;98671.63;;;17.25;100.00
79048;BME280;68680;50.764;6.120;2023-07-29T02:17:36;98658.97;;;17.26;100.00
79048;BME280;68680;50.764;6.120;2023-07-29T02:20:02;98651.69;;;17.27;100.00
79048;BME280;68680;50.764;6.120;2023-07-29T02:22:28;98665.50;;;17.20;100.00
79048;BME280;68680;50.764;6.120;2023-07-29T02:24:54;98675.47;;;17.19;100.00
79048;BME280;68680;50.764;6.120;2023-07-29T02:27:20;98669.22;;;17.24;100.00
79048;BME280;68680;50.764;6.120;2023-07-29T02:29:47;98651.06;;;17.35;100.00
79048;BME280;68680;50.764;6.120;2023-07-29T02:32:12;98652.97;;;17.34;100.00
79048;BME280;68680;50.764;6.120;2023-07-29T02:34:38;98649.22;;;17.30;100.00
79048;BME280;68680;50.764;6.120;2023-07-29T02:37:04;98650.81;;;17.31;100.00
79048;BME280;68680;50.764;6.120;2023-07-29T02:39:30;98646.50;;;17.30;100.00
79048;BME280;68680;50.764;6.120;2023-07-29T02:41:56;98649.22;;;17.30;100.00
79048;BME280;68680;50.764;6.120;2023-07-29T02:44:22;98652.22;;;17.29;100.00
79048;BME280;68680;50.764;6.120;2023-07-29T02:46:49;98647.09;;;17.27;100.00
79048;BME280;68680;50.764;6.120;2023-07-29T02:49:15;98648.47;;;17.24;100.00
79048;BME280;68680;50.764;6.120;2023-07-29T02:51:40;98643.44;;;17.18;100.00
79048;BME280;68680;50.764;6.120;2023-07-29T02:54:06;98655.88;;;17.14;100.00
79048;BME280;68680;50.764;6.120;2023-07-29T02:56:32;98661.16;;;17.00;100.00
79048;BME280;68680;50.764;6.120;2023-07-29T02:58:58;98649.78;;;17.03;100.00
79048;BME280;68680;50.764;6.120;2023-07-29T03:01:24;98646.81;;;17.05;100.00
79048;BME280;68680;50.764;6.120;2023-07-29T03:03:51;98653.91;;;16.96;100.00
79048;BME280;68680;50.764;6.120;2023-07-29T03:06:17;98654.69;;;16.96;100.00
79048;BME280;68680;50.764;6.120;2023-07-29T03:08:42;98650.06;;;17.02;100.00
79048;BME280;68680;50.764;6.120;2023-07-29T03:11:11;98647.69;;;17.00;100.00
79048;BME280;68680;50.764;6.120;2023-07-29T03:13:37;98641.97;;;17.02;100.00
79048;BME280;68680;50.764;6.120;2023-07-29T03:16:07;98641.47;;;17.00;100.00
79048;BME280;68680;50.764;6.120;2023-07-29T03:18:33;98648.84;;;16.89;100.00
79048;BME280;68680;50.764;6.120;2023-07-29T03:21:01;98649.47;;;16.81;100.00
79048;BME280;68680;50.764;6.120;2023-07-29T03:23:28;98657.59;;;16.76;100.00
79048;BME280;68680;50.764;6.120;2023-07-29T03:25:55;98654.59;;;16.82;100.00
79048;BME280;68680;50.764;6.120;2023-07-29T03:28:21;98658.31;;;16.87;100.00
79048;BME280;68680;50.764;6.120;2023-07-29T03:30:47;98654.84;;;16.81;100.00
79048;BME280;68680;50.764;6.120;2023-07-29T03:33:13;98661.31;;;16.80;100.00
79048;BME280;68680;50.764;6.120;2023-07-29T03:35:39;98655.19;;;16.74;100.00
79048;BME280;68680;50.764;6.120;2023-07-29T03:38:06;98657.56;;;16.81;100.00
79048;BME280;68680;50.764;6.120;2023-07-29T03:40:31;98655.34;;;16.88;100.00
79048;BME280;68680;50.764;6.120;2023-07-29T03:42:57;98656.41;;;16.87;100.00
79048;BME280;68680;50.764;6.120;2023-07-29T03:45:23;98654.75;;;16.91;100.00
79048;BME280;68680;50.764;6.120;2023-07-29T03:47:49;98663.97;;;16.85;100.00
79048;BME280;68680;50.764;6.120;2023-07-29T03:50:15;98670.25;;;16.75;100.00
79048;BME280;68680;50.764;6.120;2023-07-29T03:52:40;98675.13;;;16.73;100.00
79048;BME280;68680;50.764;6.120;2023-07-29T03:55:09;98676.19;;;16.72;100.00
79048;BME280;68680;50.764;6.120;2023-07-29T03:57:34;98676.19;;;16.72;100.00
79048;BME280;68680;50.764;6.120;2023-07-29T04:00:00;98675.38;;;16.72;100.00
79048;BME280;68680;50.764;6.120;2023-07-29T04:02:26;98677.81;;;16.73;100.00
79048;BME280;68680;50.764;6.120;2023-07-29T04:04:52;98678.38;;;16.70;100.00
79048;BME280;68680;50.764;6.120;2023-07-29T04:07:17;98679.38;;;16.79;100.00
79048;BME280;68680;50.764;6.120;2023-07-29T04:09:43;98679.41;;;16.74;100.00
79048;BME280;68680;50.764;6.120;2023-07-29T04:12:10;98676.72;;;16.74;100.00
79048;BME280;68680;50.764;6.120;2023-07-29T04:14:36;98671.56;;;16.78;100.00
79048;BME280;68680;50.764;6.120;2023-07-29T04:17:02;98672.91;;;16.80;100.00
79048;BME280;68680;50.764;6.120;2023-07-29T04:19:28;98678.06;;;16.77;100.00
79048;BME280;68680;50.764;6.120;2023-07-29T04:21:54;98672.38;;;16.78;100.00
79048;BME280;68680;50.764;6.120;2023-07-29T04:24:20;98664.28;;;16.78;100.00
79048;BME280;68680;50.764;6.120;2023-07-29T04:26:45;98669.34;;;16.85;100.00
79048;BME280;68680;50.764;6.120;2023-07-29T04:29:13;98660.53;;;16.79;100.00
79048;BME280;68680;50.764;6.120;2023-07-29T04:31:38;98654.31;;;16.79;100.00
79048;BME280;68680;50.764;6.120;2023-07-29T04:34:05;98664.28;;;16.78;100.00
79048;BME280;68680;50.764;6.120;2023-07-29T04:36:30;98667.78;;;16.79;100.00
79048;BME280;68680;50.764;6.120;2023-07-29T04:38:56;98673.44;;;16.82;100.00
79048;BME280;68680;50.764;6.120;2023-07-29T04:41:22;98677.47;;;16.80;100.00
79048;BME280;68680;50.764;6.120;2023-07-29T04:43:48;98669.19;;;16.76;100.00
79048;BME280;68680;50.764;6.120;2023-07-29T04:46:15;98680.44;;;16.78;100.00
79048;BME280;68680;50.764;6.120;2023-07-29T04:48:41;98672.69;;;16.77;100.00
79048;BME280;68680;50.764;6.120;2023-07-29T04:51:06;98673.44;;;16.77;100.00
79048;BME280;68680;50.764;6.120;2023-07-29T04:53:32;98674.25;;;16.78;100.00
79048;BME280;68680;50.764;6.120;2023-07-29T04:55:58;98678.06;;;16.77;100.00
79048;BME280;68680;50.764;6.120;2023-07-29T04:58:24;98669.13;;;16.81;100.00
79048;BME280;68680;50.764;6.120;2023-07-29T05:00:49;98663.75;;;16.81;100.00
79048;BME280;68680;50.764;6.120;2023-07-29T05:03:17;98682.06;;;16.79;100.00
79048;BME280;68680;50.764;6.120;2023-07-29T05:05:42;98678.84;;;16.77;100.00
79048;BME280;68680;50.764;6.120;2023-07-29T05:08:08;98679.66;;;16.78;100.00
79048;BME280;68680;50.764;6.120;2023-07-29T05:10:35;98690.16;;;16.79;100.00
79048;BME280;68680;50.764;6.120;2023-07-29T05:13:00;98687.13;;;16.86;100.00
79048;BME280;68680;50.764;6.120;2023-07-29T05:15:26;98695.16;;;16.91;100.00
79048;BME280;68680;50.764;6.120;2023-07-29T05:17:52;98700.31;;;16.88;100.00
79048;BME280;68680;50.764;6.120;2023-07-29T05:20:19;98697.91;;;16.86;100.00
79048;BME280;68680;50.764;6.120;2023-07-29T05:22:45;98701.94;;;16.89;100.00
79048;BME280;68680;50.764;6.120;2023-07-29T05:25:11;98707.31;;;16.89;100.00
79048;BME280;68680;50.764;6.120;2023-07-29T05:27:36;98713.16;;;16.96;100.00
79048;BME280;68680;50.764;6.120;2023-07-29T05:30:03;98711.56;;;16.95;100.00
79048;BME280;68680;50.764;6.120;2023-07-29T05:32:29;98711.84;;;16.93;100.00
79048;BME280;68680;50.764;6.120;2023-07-29T05:34:54;98715.56;;;16.97;100.00
79048;BME280;68680;50.764;6.120;2023-07-29T05:37:21;98711.53;;;17.00;100.00
79048;BME280;68680;50.764;6.120;2023-07-29T05:39:47;98725.53;;;16.97;100.00
79048;BME280;68680;50.764;6.120;2023-07-29T05:42:13;98723.88;;;17.01;100.00
79048;BME280;68680;50.764;6.120;2023-07-29T05:44:39;98730.06;;;17.01;100.00
79048;BME280;68680;50.764;6.120;2023-07-29T05:47:05;98738.75;;;16.98;100.00
79048;BME280;68680;50.764;6.120;2023-07-29T05:49:31;98741.16;;;17.00;100.00
79048;BME280;68680;50.764;6.120;2023-07-29T05:51:56;98746.78;;;17.03;100.00
79048;BME280;68680;50.764;6.120;2023-07-29T05:54:24;98743.00;;;17.04;100.00
79048;BME280;68680;50.764;6.120;2023-07-29T05:56:49;98737.13;;;16.97;100.00
79048;BME280;68680;50.764;6.120;2023-07-29T05:59:15;98739.81;;;16.97;100.00
79048;BME280;68680;50.764;6.120;2023-07-29T06:01:41;98746.00;;;16.98;100.00
79048;BME280;68680;50.764;6.120;2023-07-29T06:04:07;98744.31;;;17.07;100.00
79048;BME280;68680;50.764;6.120;2023-07-29T06:06:32;98743.22;;;17.08;100.00
79048;BME280;68680;50.764;6.120;2023-07-29T06:08:58;98742.91;;;17.14;100.00
79048;BME280;68680;50.764;6.120;2023-07-29T06:11:25;98749.63;;;17.17;100.00
79048;BME280;68680;50.764;6.120;2023-07-29T06:13:51;98755.00;;;17.17;100.00
79048;BME280;68680;50.764;6.120;2023-07-29T06:16:17;98753.06;;;17.22;100.00
79048;BME280;68680;50.764;6.120;2023-07-29T06:18:43;98756.91;;;17.16;100.00
79048;BME280;68680;50.764;6.120;2023-07-29T06:21:08;98758.22;;;17.19;100.00
79048;BME280;68680;50.764;6.120;2023-07-29T06:23:34;98754.91;;;17.27;100.00
79048;BME280;68680;50.764;6.120;2023-07-29T06:26:00;98754.44;;;17.20;100.00
79048;BME280;68680;50.764;6.120;2023-07-29T06:28:27;98753.88;;;17.23;100.00
79048;BME280;68680;50.764;6.120;2023-07-29T06:30:53;98741.22;;;17.23;100.00
79048;BME280;68680;50.764;6.120;2023-07-29T06:33:19;98730.94;;;17.25;100.00
79048;BME280;68680;50.764;6.120;2023-07-29T06:35:44;98735.34;;;17.16;100.00
79048;BME280;68680;50.764;6.120;2023-07-29T06:38:10;98734.28;;;17.12;100.00
79048;BME280;68680;50.764;6.120;2023-07-29T06:40:36;98736.97;;;17.12;100.00
79048;BME280;68680;50.764;6.120;2023-07-29T06:43:02;98744.50;;;17.15;100.00
79048;BME280;68680;50.764;6.120;2023-07-29T06:45:29;98749.09;;;17.15;100.00
79048;BME280;68680;50.764;6.120;2023-07-29T06:47:54;98742.09;;;17.14;100.00
79048;BME280;68680;50.764;6.120;2023-07-29T06:50:20;98746.97;;;17.12;100.00
79048;BME280;68680;50.764;6.120;2023-07-29T06:52:46;98753.50;;;17.06;100.00
79048;BME280;68680;50.764;6.120;2023-07-29T06:55:12;98751.25;;;17.13;100.00
79048;BME280;68680;50.764;6.120;2023-07-29T06:57:38;98755.34;;;17.10;100.00
79048;BME280;68680;50.764;6.120;2023-07-29T07:00:05;98764.72;;;17.13;100.00
79048;BME280;68680;50.764;6.120;2023-07-29T07:02:32;98764.22;;;17.11;100.00
79048;BME280;68680;50.764;6.120;2023-07-29T07:04:58;98770.13;;;17.13;100.00
79048;BME280;68680;50.764;6.120;2023-07-29T07:07:24;98765.34;;;17.05;100.00
79048;BME280;68680;50.764;6.120;2023-07-29T07:09:49;98756.47;;;17.04;100.00
79048;BME280;68680;50.764;6.120;2023-07-29T07:12:15;98762.72;;;17.00;100.00
79048;BME280;68680;50.764;6.120;2023-07-29T07:14:41;98755.97;;;16.97;100.00
79048;BME280;68680;50.764;6.120;2023-07-29T07:17:07;98758.63;;;17.02;100.00
79048;BME280;68680;50.764;6.120;2023-07-29T07:19:34;98760.78;;;17.05;100.00
79048;BME280;68680;50.764;6.120;2023-07-29T07:22:00;98759.50;;;17.27;100.00
79048;BME280;68680;50.764;6.120;2023-07-29T07:24:25;98757.81;;;17.31;100.00
79048;BME280;68680;50.764;6.120;2023-07-29T07:26:51;98758.25;;;17.43;100.00
79048;BME280;68680;50.764;6.120;2023-07-29T07:29:17;98765.44;;;17.52;100.00
79048;BME280;68680;50.764;6.120;2023-07-29T07:31:51;98771.06;;;17.56;100.00
79048;BME280;68680;50.764;6.120;2023-07-29T07:34:17;98765.84;;;17.41;100.00
79048;BME280;68680;50.764;6.120;2023-07-29T07:36:44;98770.38;;;17.45;100.00
79048;BME280;68680;50.764;6.120;2023-07-29T07:39:10;98781.38;;;17.49;100.00
79048;BME280;68680;50.764;6.120;2023-07-29T07:41:36;98768.66;;;17.54;100.00
79048;BME280;68680;50.764;6.120;2023-07-29T07:44:02;98765.84;;;17.70;100.00
79048;BME280;68680;50.764;6.120;2023-07-29T07:46:28;98767.88;;;17.78;100.00
79048;BME280;68680;50.764;6.120;2023-07-29T07:48:54;98765.31;;;17.91;100.00
79048;BME280;68680;50.764;6.120;2023-07-29T07:51:20;98771.44;;;17.97;100.00
79048;BME280;68680;50.764;6.120;2023-07-29T07:53:48;98767.66;;;17.98;100.00
79048;BME280;68680;50.764;6.120;2023-07-29T07:56:14;98758.56;;;17.89;100.00
79048;BME280;68680;50.764;6.120;2023-07-29T07:58:40;98765.03;;;17.93;100.00
79048;BME280;68680;50.764;6.120;2023-07-29T08:01:06;98764.16;;;17.97;100.00
79048;BME280;68680;50.764;6.120;2023-07-29T08:03:33;98766.72;;;18.08;100.00
79048;BME280;68680;50.764;6.120;2023-07-29T08:05:59;98765.44;;;18.00;100.00
79048;BME280;68680;50.764;6.120;2023-07-29T08:08:26;98772.47;;;18.01;100.00
79048;BME280;68680;50.764;6.120;2023-07-29T08:10:54;98777.97;;;17.91;100.00
79048;BME280;68680;50.764;6.120;2023-07-29T08:13:22;98778.56;;;17.88;100.00
79048;BME280;68680;50.764;6.120;2023-07-29T08:15:49;98780.16;;;17.89;100.00
79048;BME280;68680;50.764;6.120;2023-07-29T08:18:15;98782.78;;;17.94;100.00
79048;BME280;68680;50.764;6.120;2023-07-29T08:20:41;98784.41;;;17.95;100.00
79048;BME280;68680;50.764;6.120;2023-07-29T08:23:07;98783.31;;;17.96;100.00
79048;BME280;68680;50.764;6.120;2023-07-29T08:25:33;98780.88;;;17.99;100.00
79048;BME280;68680;50.764;6.120;2023-07-29T08:28:00;98783.59;;;17.94;100.00
79048;BME280;68680;50.764;6.120;2023-07-29T08:30:26;98782.28;;;17.92;100.00
79048;BME280;68680;50.764;6.120;2023-07-29T08:32:51;98780.41;;;17.92;100.00
79048;BME280;68680;50.764;6.120;2023-07-29T08:35:17;98774.06;;;18.02;100.00
79048;BME280;68680;50.764;6.120;2023-07-29T08:37:43;98778.66;;;18.01;100.00
79048;BME280;68680;50.764;6.120;2023-07-29T08:40:10;98785.16;;;18.00;100.00
79048;BME280;68680;50.764;6.120;2023-07-29T08:42:38;98782.09;;;18.07;100.00
79048;BME280;68680;50.764;6.120;2023-07-29T08:45:08;98784.44;;;18.14;100.00
79048;BME280;68680;50.764;6.120;2023-07-29T08:47:35;98776.63;;;18.12;100.00
79048;BME280;68680;50.764;6.120;2023-07-29T08:50:03;98777.75;;;18.11;100.00
79048;BME280;68680;50.764;6.120;2023-07-29T08:52:29;98775.91;;;18.06;100.00
79048;BME280;68680;50.764;6.120;2023-07-29T08:54:56;98778.59;;;18.06;100.00
79048;BME280;68680;50.764;6.120;2023-07-29T08:57:23;98778.53;;;18.12;100.00
79048;BME280;68680;50.764;6.120;2023-07-29T08:59:49;98791.28;;;18.06;100.00
79048;BME280;68680;50.764;6.120;2023-07-29T09:02:16;98789.03;;;18.13;100.00
79048;BME280;68680;50.764;6.120;2023-07-29T09:04:43;98794.16;;;18.15;100.00
79048;BME280;68680;50.764;6.120;2023-07-29T09:07:10;98795.47;;;18.17;100.00
79048;BME280;68680;50.764;6.120;2023-07-29T09:09:36;98789.31;;;18.12;100.00
79048;BME280;68680;50.764;6.120;2023-07-29T09:12:02;98789.97;;;18.03;100.00
79048;BME280;68680;50.764;6.120;2023-07-29T09:14:28;98800.78;;;18.03;100.00
79048;BME280;68680;50.764;6.120;2023-07-29T09:16:54;98807.59;;;17.96;100.00
79048;BME280;68680;50.764;6.120;2023-07-29T09:19:25;98802.59;;;17.84;100.00
79048;BME280;68680;50.764;6.120;2023-07-29T09:21:50;98817.56;;;17.72;100.00
79048;BME280;68680;50.764;6.120;2023-07-29T09:24:16;98824.41;;;17.59;100.00
79048;BME280;68680;50.764;6.120;2023-07-29T09:26:49;98820.38;;;17.61;100.00
79048;BME280;68680;50.764;6.120;2023-07-29T09:29:15;98816.63;;;17.57;100.00
79048;BME280;68680;50.764;6.120;2023-07-29T09:31:41;98812.66;;;17.50;100.00
79048;BME280;68680;50.764;6.120;2023-07-29T09:34:07;98810.91;;;17.35;100.00
79048;BME280;68680;50.764;6.120;2023-07-29T09:36:34;98818.19;;;17.35;100.00
79048;BME280;68680;50.764;6.120;2023-07-29T09:39:00;98822.28;;;17.27;100.00
79048;BME280;68680;50.764;6.120;2023-07-29T09:41:27;98821.53;;;17.21;100.00
79048;BME280;68680;50.764;6.120;2023-07-29T09:43:58;98817.81;;;17.17;100.00
79048;BME280;68680;50.764;6.120;2023-07-29T09:46:25;98819.91;;;17.20;100.00
79048;BME280;68680;50.764;6.120;2023-07-29T09:48:53;98822.38;;;17.17;100.00
79048;BME280;68680;50.764;6.120;2023-07-29T09:51:19;98827.19;;;17.20;100.00
79048;BME280;68680;50.764;6.120;2023-07-29T09:53:49;98821.75;;;17.25;100.00
79048;BME280;68680;50.764;6.120;2023-07-29T09:56:15;98829.09;;;17.19;100.00
79048;BME280;68680;50.764;6.120;2023-07-29T09:58:43;98835.59;;;17.13;100.00
79048;BME280;68680;50.764;6.120;2023-07-29T10:01:09;98827.16;;;17.25;100.00
79048;BME280;68680;50.764;6.120;2023-07-29T10:03:36;98829.38;;;17.18;100.00
79048;BME280;68680;50.764;6.120;2023-07-29T10:06:03;98827.78;;;17.17;100.00
79048;BME280;68680;50.764;6.120;2023-07-29T10:08:30;98817.94;;;17.31;100.00
79048;BME280;68680;50.764;6.120;2023-07-29T10:10:59;98818.66;;;17.42;100.00
79048;BME280;68680;50.764;6.120;2023-07-29T10:13:26;98810.97;;;17.54;100.00
79048;BME280;68680;50.764;6.120;2023-07-29T10:15:53;98813.00;;;17.72;100.00
79048;BME280;68680;50.764;6.120;2023-07-29T10:18:19;98802.44;;;17.76;100.00
79048;BME280;68680;50.764;6.120;2023-07-29T10:20:48;98803.13;;;17.86;100.00
79048;BME280;68680;50.764;6.120;2023-07-29T10:23:17;98797.19;;;18.08;100.00
79048;BME280;68680;50.764;6.120;2023-07-29T10:25:50;98799.56;;;18.15;100.00
79048;BME280;68680;50.764;6.120;2023-07-29T10:28:25;98799.34;;;18.30;100.00
79048;BME280;68680;50.764;6.120;2023-07-29T10:30:52;98803.22;;;18.24;100.00
79048;BME280;68680;50.764;6.120;2023-07-29T10:33:19;98804.75;;;18.30;100.00
79048;BME280;68680;50.764;6.120;2023-07-29T10:35:46;98800.88;;;18.36;100.00
79048;BME280;68680;50.764;6.120;2023-07-29T10:38:12;98801.47;;;18.57;100.00
79048;BME280;68680;50.764;6.120;2023-07-29T10:40:46;98801.53;;;18.70;100.00
79048;BME280;68680;50.764;6.120;2023-07-29T10:43:25;98791.59;;;18.66;100.00
79048;BME280;68680;50.764;6.120;2023-07-29T10:45:51;98801.75;;;18.74;100.00
79048;BME280;68680;50.764;6.120;2023-07-29T10:48:42;98800.28;;;18.81;100.00
79048;BME280;68680;50.764;6.120;2023-07-29T10:51:26;98802.13;;;18.86;100.00
79048;BME280;68680;50.764;6.120;2023-07-29T10:53:54;98795.88;;;19.04;100.00
79048;BME280;68680;50.764;6.120;2023-07-29T10:56:29;98789.34;;;19.05;97.74
79048;BME280;68680;50.764;6.120;2023-07-29T10:58:59;98786.28;;;19.12;97.62
79048;BME280;68680;50.764;6.120;2023-07-29T11:01:29;98790.13;;;19.24;96.54
79048;BME280;68680;50.764;6.120;2023-07-29T11:04:23;98792.06;;;19.38;96.74
79048;BME280;68680;50.764;6.120;2023-07-29T11:07:44;98790.97;;;19.39;93.92
79048;BME280;68680;50.764;6.120;2023-07-29T11:10:12;98787.09;;;19.45;94.34
79048;BME280;68680;50.764;6.120;2023-07-29T11:12:44;98786.53;;;19.61;95.26
79048;BME280;68680;50.764;6.120;2023-07-29T11:15:22;98784.63;;;19.89;94.43
79048;BME280;68680;50.764;6.120;2023-07-29T11:17:52;98783.63;;;19.85;92.46
79048;BME280;68680;50.764;6.120;2023-07-29T11:20:20;98782.72;;;19.76;92.43
79048;BME280;68680;50.764;6.120;2023-07-29T11:22:46;98777.09;;;19.86;91.12
79048;BME280;68680;50.764;6.120;2023-07-29T11:25:14;98771.81;;;19.95;88.11
79048;BME280;68680;50.764;6.120;2023-07-29T11:27:41;98779.22;;;20.03;90.56
79048;BME280;68680;50.764;6.120;2023-07-29T11:30:09;98771.47;;;20.10;89.72
79048;BME280;68680;50.764;6.120;2023-07-29T11:32:38;98777.97;;;20.23;88.28
79048;BME280;68680;50.764;6.120;2023-07-29T11:35:06;98769.56;;;20.38;90.90
79048;BME280;68680;50.764;6.120;2023-07-29T11:37:33;98765.38;;;20.32;85.16
79048;BME280;68680;50.764;6.120;2023-07-29T11:40:00;98771.34;;;20.29;85.48
79048;BME280;68680;50.764;6.120;2023-07-29T11:42:27;98764.53;;;20.45;89.19
79048;BME280;68680;50.764;6.120;2023-07-29T11:44:52;98761.22;;;20.48;86.62
79048;BME280;68680;50.764;6.120;2023-07-29T11:47:18;98765.16;;;20.42;83.75
79048;BME280;68680;50.764;6.120;2023-07-29T11:49:45;98757.47;;;20.58;85.48
79048;BME280;68680;50.764;6.120;2023-07-29T11:52:12;98749.53;;;20.61;87.39
79048;BME280;68680;50.764;6.120;2023-07-29T11:54:39;98742.53;;;20.60;85.00
79048;BME280;68680;50.764;6.120;2023-07-29T11:57:06;98748.00;;;20.69;83.58
79048;BME280;68680;50.764;6.120;2023-07-29T11:59:34;98738.72;;;20.83;83.98
79048;BME280;68680;50.764;6.120;2023-07-29T12:02:01;98738.88;;;20.87;83.83
79048;BME280;68680;50.764;6.120;2023-07-29T12:04:27;98743.88;;;20.94;84.67
79048;BME280;68680;50.764;6.120;2023-07-29T12:06:56;98738.50;;;20.80;85.04
79048;BME280;68680;50.764;6.120;2023-07-29T12:09:22;98728.13;;;20.73;86.09
79048;BME280;68680;50.764;6.120;2023-07-29T12:11:48;98718.00;;;20.65;84.52
79048;BME280;68680;50.764;6.120;2023-07-29T12:14:16;98727.13;;;20.69;87.33
79048;BME280;68680;50.764;6.120;2023-07-29T12:16:43;98728.19;;;20.46;84.33
79048;BME280;68680;50.764;6.120;2023-07-29T12:19:12;98726.03;;;20.34;87.19
79048;BME280;68680;50.764;6.120;2023-07-29T12:21:38;98724.75;;;20.32;86.96
79048;BME280;68680;50.764;6.120;2023-07-29T12:24:05;98728.53;;;20.31;88.20
79048;BME280;68680;50.764;6.120;2023-07-29T12:26:31;98732.69;;;20.15;89.76
79048;BME280;68680;50.764;6.120;2023-07-29T12:28:57;98730.56;;;20.12;91.08
79048;BME280;68680;50.764;6.120;2023-07-29T12:31:31;98730.69;;;19.93;89.69
79048;BME280;68680;50.764;6.120;2023-07-29T12:33:58;98743.63;;;19.82;90.68
79048;BME280;68680;50.764;6.120;2023-07-29T12:36:41;98745.34;;;19.78;91.40
79048;BME280;68680;50.764;6.120;2023-07-29T12:39:18;98754.47;;;19.55;93.74
79048;BME280;68680;50.764;6.120;2023-07-29T12:41:44;98758.28;;;19.35;97.71
79048;BME280;68680;50.764;6.120;2023-07-29T12:44:10;98777.75;;;19.05;98.83
79048;BME280;68680;50.764;6.120;2023-07-29T12:46:37;98788.53;;;18.91;100.00
79048;BME280;68680;50.764;6.120;2023-07-29T12:49:02;98793.41;;;18.52;100.00
79048;BME280;68680;50.764;6.120;2023-07-29T12:51:28;98779.72;;;18.24;100.00